sensor_id;sensor_type;location;lat;lon;timestamp;temperature;humidity
14252;DHT22;7210;51.502;10.722;2023-08-24T00:01:07;15.60;1.00
14252;DHT22;7210;51.502;10.722;2023-08-24T00:03:36;15.60;1.00
14252;DHT22;7210;51.502;10.722;2023-08-24T00:06:04;15.50;1.00
14252;DHT22;7210;51.502;10.722;2023-08-24T00:08:32;15.50;1.00
14252;DHT22;7210;51.502;10.722;2023-08-24T00:10:59;15.50;1.00
14252;DHT22;7210;51.502;10.722;2023-08-24T00:13:27;15.50;1.00
14252;DHT22;7210;51.502;10.722;2023-08-24T00:15:55;15.50;1.00
14252;DHT22;7210;51.502;10.722;2023-08-24T00:18:24;15.40;1.00
14252;DHT22;7210;51.502;10.722;2023-08-24T00:20:51;15.40;1.00
14252;DHT22;7210;51.502;10.722;2023-08-24T00:23:19;15.40;1.00
14252;DHT22;7210;51.502;10.722;2023-08-24T00:25:46;15.30;1.00
14252;DHT22;7210;51.502;10.722;2023-08-24T00:28:13;15.30;1.00
14252;DHT22;7210;51.502;10.722;2023-08-24T00:30:42;15.30;1.00
14252;DHT22;7210;51.502;10.722;2023-08-24T00:33:09;15.20;1.00
14252;DHT22;7210;51.502;10.722;2023-08-24T00:35:42;15.20;1.00
14252;DHT22;7210;51.502;10.722;2023-08-24T00:38:09;15.10;1.00
14252;DHT22;7210;51.502;10.722;2023-08-24T00:40:37;15.10;1.00
14252;DHT22;7210;51.502;10.722;2023-08-24T00:43:06;15.10;1.40
14252;DHT22;7210;51.502;10.722;2023-08-24T00:45:33;15.10;99.90
14252;DHT22;7210;51.502;10.722;2023-08-24T00:48:03;15.00;99.90
14252;DHT22;7210;51.502;10.722;2023-08-24T00:50:31;14.90;99.90
14252;DHT22;7210;51.502;10.722;2023-08-24T00:52:59;14.90;99.90
14252;DHT22;7210;51.502;10.722;2023-08-24T00:55:27;14.90;99.90
14252;DHT22;7210;51.502;10.722;2023-08-24T00:57:54;14.90;99.90
14252;DHT22;7210;51.502;10.722;2023-08-24T01:00:23;15.00;99.90
14252;DHT22;7210;51.502;10.722;2023-08-24T01:02:51;14.90;99.90
14252;DHT22;7210;51.502;10.722;2023-08-24T01:05:20;14.90;99.90
14252;DHT22;7210;51.502;10.722;2023-08-24T01:07:47;14.90;99.90
14252;DHT22;7210;51.502;10.722;2023-08-24T01:10:15;14.90;99.90
14252;DHT22;7210;51.502;10.722;2023-08-24T01:12:50;14.80;1.00
14252;DHT22;7210;51.502;10.722;2023-08-24T01:15:29;14.70;1.00
14252;DHT22;7210;51.502;10.722;2023-08-24T01:18:11;14.70;1.00
14252;DHT22;7210;51.502;10.722;2023-08-24T01:20:44;14.60;1.00
14252;DHT22;7210;51.502;10.722;2023-08-24T01:23:28;14.60;99.90
14252;DHT22;7210;51.502;10.722;2023-08-24T01:26:17;14.60;99.90
14252;DHT22;7210;51.502;10.722;2023-08-24T01:28:46;14.70;99.90
14252;DHT22;7210;51.502;10.722;2023-08-24T01:31:14;14.60;99.90
14252;DHT22;7210;51.502;10.722;2023-08-24T01:33:42;14.60;99.90
14252;DHT22;7210;51.502;10.722;2023-08-24T01:36:11;14.60;99.90
14252;DHT22;7210;51.502;10.722;2023-08-24T01:38:41;14.50;99.90
14252;DHT22;7210;51.502;10.722;2023-08-24T01:41:22;14.50;99.90
14252;DHT22;7210;51.502;10.722;2023-08-24T01:43:53;14.50;99.90
14252;DHT22;7210;51.502;10.722;2023-08-24T01:46:24;14.50;99.90
14252;DHT22;7210;51.502;10.722;2023-08-24T01:48:53;14.50;99.90
14252;DHT22;7210;51.502;10.722;2023-08-24T01:51:23;14.40;99.90
14252;DHT22;7210;51.502;10.722;2023-08-24T01:53:52;14.40;99.90
14252;DHT22;7210;51.502;10.722;2023-08-24T01:56:25;14.30;99.90
14252;DHT22;7210;51.502;10.722;2023-08-24T01:58:53;14.30;99.90
14252;DHT22;7210;51.502;10.722;2023-08-24T02:01:20;14.40;99.90
14252;DHT22;7210;51.502;10.722;2023-08-24T02:03:49;14.40;99.90
14252;DHT22;7210;51.502;10.722;2023-08-24T02:06:16;14.40;99.90
14252;DHT22;7210;51.502;10.722;2023-08-24T02:08:43;14.40;99.90
14252;DHT22;7210;51.502;10.722;2023-08-24T02:11:11;14.40;99.90
14252;DHT22;7210;51.502;10.722;2023-08-24T02:13:40;14.40;99.90
14252;DHT22;7210;51.502;10.722;2023-08-24T02:16:08;14.40;99.90
14252;DHT22;7210;51.502;10.722;2023-08-24T02:18:35;14.30;99.90
14252;DHT22;7210;51.502;10.722;2023-08-24T02:21:07;14.30;99.90
14252;DHT22;7210;51.502;10.722;2023-08-24T02:23:36;14.30;99.90
14252;DHT22;7210;51.502;10.722;2023-08-24T02:26:03;14.20;99.90
14252;DHT22;7210;51.502;10.722;2023-08-24T02:28:30;14.20;99.90
14252;DHT22;7210;51.502;10.722;2023-08-24T02:31:02;14.10;99.90
14252;DHT22;7210;51.502;10.722;2023-08-24T02:33:29;14.10;99.90
14252;DHT22;7210;51.502;10.722;2023-08-24T02:35:57;14.10;99.90
14252;DHT22;7210;51.502;10.722;2023-08-24T02:38:30;14.00;99.90
14252;DHT22;7210;51.502;10.722;2023-08-24T02:41:01;14.10;99.90
14252;DHT22;7210;51.502;10.722;2023-08-24T02:43:30;14.10;99.90
14252;DHT22;7210;51.502;10.722;2023-08-24T02:46:01;14.10;99.90
14252;DHT22;7210;51.502;10.722;2023-08-24T02:48:30;14.00;99.90
14252;DHT22;7210;51.502;10.722;2023-08-24T02:50:57;13.90;99.90
14252;DHT22;7210;51.502;10.722;2023-08-24T02:53:25;13.80;99.90
14252;DHT22;7210;51.502;10.722;2023-08-24T02:55:54;13.90;99.90
14252;DHT22;7210;51.502;10.722;2023-08-24T02:58:21;13.80;99.90
14252;DHT22;7210;51.502;10.722;2023-08-24T03:00:49;13.80;99.90
14252;DHT22;7210;51.502;10.722;2023-08-24T03:03:18;13.80;99.90
14252;DHT22;7210;51.502;10.722;2023-08-24T03:05:55;13.80;99.90
14252;DHT22;7210;51.502;10.722;2023-08-24T03:08:26;13.80;99.90
14252;DHT22;7210;51.502;10.722;2023-08-24T03:10:55;13.80;99.90
14252;DHT22;7210;51.502;10.722;2023-08-24T03:13:22;13.90;99.90
14252;DHT22;7210;51.502;10.722;2023-08-24T03:15:51;13.80;99.90
14252;DHT22;7210;51.502;10.722;2023-08-24T03:18:21;13.80;99.90
14252;DHT22;7210;51.502;10.722;2023-08-24T03:20:49;13.80;99.90
14252;DHT22;7210;51.502;10.722;2023-08-24T03:23:17;13.70;99.90
14252;DHT22;7210;51.502;10.722;2023-08-24T03:25:44;13.80;99.90
14252;DHT22;7210;51.502;10.722;2023-08-24T03:28:11;13.70;99.90
14252;DHT22;7210;51.502;10.722;2023-08-24T03:30:45;13.70;99.90
14252;DHT22;7210;51.502;10.722;2023-08-24T03:33:13;13.70;99.90
14252;DHT22;7210;51.502;10.722;2023-08-24T03:35:42;13.60;99.90
14252;DHT22;7210;51.502;10.722;2023-08-24T03:38:10;13.60;99.90
14252;DHT22;7210;51.502;10.722;2023-08-24T03:40:37;13.60;99.90
14252;DHT22;7210;51.502;10.722;2023-08-24T03:43:05;13.60;99.90
14252;DHT22;7210;51.502;10.722;2023-08-24T03:45:32;13.40;99.90
14252;DHT22;7210;51.502;10.722;2023-08-24T03:48:00;13.40;99.90
14252;DHT22;7210;51.502;10.722;2023-08-24T03:50:27;13.40;99.90
14252;DHT22;7210;51.502;10.722;2023-08-24T03:52:55;13.40;99.90
14252;DHT22;7210;51.502;10.722;2023-08-24T03:55:23;13.50;99.90
14252;DHT22;7210;51.502;10.722;2023-08-24T03:57:50;13.50;99.90
14252;DHT22;7210;51.502;10.722;2023-08-24T04:00:18;13.50;99.90
14252;DHT22;7210;51.502;10.722;2023-08-24T04:02:45;13.50;99.90
14252;DHT22;7210;51.502;10.722;2023-08-24T04:05:20;13.50;99.90
14252;DHT22;7210;51.502;10.722;2023-08-24T04:07:48;13.50;99.90
14252;DHT22;7210;51.502;10.722;2023-08-24T04:10:17;13.40;99.90
14252;DHT22;7210;51.502;10.722;2023-08-24T04:12:44;13.40;99.90
14252;DHT22;7210;51.502;10.722;2023-08-24T04:15:12;13.30;99.90
14252;DHT22;7210;51.502;10.722;2023-08-24T04:17:39;13.30;99.90
14252;DHT22;7210;51.502;10.722;2023-08-24T04:20:07;13.30;99.90
14252;DHT22;7210;51.502;10.722;2023-08-24T04:22:35;13.30;99.90
14252;DHT22;7210;51.502;10.722;2023-08-24T04:25:03;13.30;99.90
14252;DHT22;7210;51.502;10.722;2023-08-24T04:27:33;13.30;99.90
14252;DHT22;7210;51.502;10.722;2023-08-24T04:30:00;13.40;99.90
14252;DHT22;7210;51.502;10.722;2023-08-24T04:32:36;13.40;99.90
14252;DHT22;7210;51.502;10.722;2023-08-24T04:35:04;13.40;99.90
14252;DHT22;7210;51.502;10.722;2023-08-24T04:37:31;13.40;99.90
14252;DHT22;7210;51.502;10.722;2023-08-24T04:39:58;13.40;99.90
14252;DHT22;7210;51.502;10.722;2023-08-24T04:42:30;13.50;99.90
14252;DHT22;7210;51.502;10.722;2023-08-24T04:45:01;13.50;99.90
14252;DHT22;7210;51.502;10.722;2023-08-24T04:47:29;13.40;99.90
14252;DHT22;7210;51.502;10.722;2023-08-24T04:49:56;13.40;99.90
14252;DHT22;7210;51.502;10.722;2023-08-24T04:52:24;13.40;99.90
14252;DHT22;7210;51.502;10.722;2023-08-24T04:54:51;13.40;99.90
14252;DHT22;7210;51.502;10.722;2023-08-24T04:57:18;13.40;99.90
14252;DHT22;7210;51.502;10.722;2023-08-24T04:59:46;13.50;99.90
14252;DHT22;7210;51.502;10.722;2023-08-24T05:02:14;13.50;99.90
14252;DHT22;7210;51.502;10.722;2023-08-24T05:04:41;13.50;99.90
14252;DHT22;7210;51.502;10.722;2023-08-24T05:07:09;13.60;99.90
14252;DHT22;7210;51.502;10.722;2023-08-24T05:09:36;13.70;99.90
14252;DHT22;7210;51.502;10.722;2023-08-24T05:12:04;13.80;99.90
14252;DHT22;7210;51.502;10.722;2023-08-24T05:14:36;13.90;99.90
14252;DHT22;7210;51.502;10.722;2023-08-24T05:17:03;13.90;99.90
14252;DHT22;7210;51.502;10.722;2023-08-24T05:19:33;13.90;99.90
14252;DHT22;7210;51.502;10.722;2023-08-24T05:22:01;14.00;99.90
14252;DHT22;7210;51.502;10.722;2023-08-24T05:24:29;14.10;99.90
14252;DHT22;7210;51.502;10.722;2023-08-24T05:27:00;14.20;99.90
14252;DHT22;7210;51.502;10.722;2023-08-24T05:29:27;14.30;99.90
14252;DHT22;7210;51.502;10.722;2023-08-24T05:31:54;14.30;99.90
14252;DHT22;7210;51.502;10.722;2023-08-24T05:34:22;14.40;99.90
14252;DHT22;7210;51.502;10.722;2023-08-24T05:37:01;14.60;99.90
14252;DHT22;7210;51.502;10.722;2023-08-24T05:39:28;14.80;99.90
14252;DHT22;7210;51.502;10.722;2023-08-24T05:41:56;14.80;99.90
14252;DHT22;7210;51.502;10.722;2023-08-24T05:44:24;14.90;99.90
14252;DHT22;7210;51.502;10.722;2023-08-24T05:46:51;15.00;99.90
14252;DHT22;7210;51.502;10.722;2023-08-24T05:49:30;15.20;99.90
14252;DHT22;7210;51.502;10.722;2023-08-24T05:51:57;15.30;99.90
14252;DHT22;7210;51.502;10.722;2023-08-24T05:54:37;15.30;99.90
14252;DHT22;7210;51.502;10.722;2023-08-24T06:01:11;15.50;99.90
14252;DHT22;7210;51.502;10.722;2023-08-24T06:14:59;16.50;1.00
14252;DHT22;7210;51.502;10.722;2023-08-24T06:25:43;16.80;1.00
14252;DHT22;7210;51.502;10.722;2023-08-24T06:32:18;17.10;1.00
14252;DHT22;7210;51.502;10.722;2023-08-24T06:34:46;17.30;1.00
14252;DHT22;7210;51.502;10.722;2023-08-24T06:37:13;17.40;1.00
14252;DHT22;7210;51.502;10.722;2023-08-24T06:39:40;17.50;1.00
14252;DHT22;7210;51.502;10.722;2023-08-24T06:42:12;17.80;1.00
14252;DHT22;7210;51.502;10.722;2023-08-24T06:44:40;18.10;1.00
14252;DHT22;7210;51.502;10.722;2023-08-24T06:47:07;18.20;1.00
14252;DHT22;7210;51.502;10.722;2023-08-24T06:49:36;18.40;1.00
14252;DHT22;7210;51.502;10.722;2023-08-24T06:52:04;18.60;1.00
14252;DHT22;7210;51.502;10.722;2023-08-24T06:54:36;18.70;1.00
14252;DHT22;7210;51.502;10.722;2023-08-24T06:57:04;18.80;1.00
14252;DHT22;7210;51.502;10.722;2023-08-24T06:59:31;18.80;1.00
14252;DHT22;7210;51.502;10.722;2023-08-24T07:01:58;18.90;1.00
14252;DHT22;7210;51.502;10.722;2023-08-24T07:04:26;19.00;1.00
14252;DHT22;7210;51.502;10.722;2023-08-24T07:06:55;19.10;1.00
14252;DHT22;7210;51.502;10.722;2023-08-24T07:09:23;19.30;1.00
14252;DHT22;7210;51.502;10.722;2023-08-24T07:11:50;19.40;1.00
14252;DHT22;7210;51.502;10.722;2023-08-24T07:14:17;19.60;1.00
14252;DHT22;7210;51.502;10.722;2023-08-24T07:16:45;19.70;1.00
14252;DHT22;7210;51.502;10.722;2023-08-24T07:19:12;19.80;1.00
14252;DHT22;7210;51.502;10.722;2023-08-24T07:21:42;19.90;1.00
14252;DHT22;7210;51.502;10.722;2023-08-24T07:24:11;20.00;1.00
14252;DHT22;7210;51.502;10.722;2023-08-24T07:26:40;20.10;1.00
14252;DHT22;7210;51.502;10.722;2023-08-24T07:29:12;20.20;1.00
14252;DHT22;7210;51.502;10.722;2023-08-24T07:31:40;20.30;1.00
14252;DHT22;7210;51.502;10.722;2023-08-24T07:34:07;20.40;1.00
14252;DHT22;7210;51.502;10.722;2023-08-24T07:36:34;20.50;1.00
14252;DHT22;7210;51.502;10.722;2023-08-24T07:39:02;20.50;1.00
14252;DHT22;7210;51.502;10.722;2023-08-24T07:41:30;20.60;1.00
14252;DHT22;7210;51.502;10.722;2023-08-24T07:43:57;20.70;1.00
14252;DHT22;7210;51.502;10.722;2023-08-24T07:46:30;20.80;1.00
14252;DHT22;7210;51.502;10.722;2023-08-24T07:48:57;20.70;1.00
14252;DHT22;7210;51.502;10.722;2023-08-24T07:51:32;20.80;1.00
14252;DHT22;7210;51.502;10.722;2023-08-24T07:54:00;20.90;1.00
14252;DHT22;7210;51.502;10.722;2023-08-24T07:56:27;20.90;1.00
14252;DHT22;7210;51.502;10.722;2023-08-24T07:58:55;20.90;1.00
14252;DHT22;7210;51.502;10.722;2023-08-24T08:01:23;20.90;1.00
14252;DHT22;7210;51.502;10.722;2023-08-24T08:03:50;20.90;1.00
14252;DHT22;7210;51.502;10.722;2023-08-24T08:06:17;21.00;1.00
14252;DHT22;7210;51.502;10.722;2023-08-24T08:08:44;21.00;1.00
14252;DHT22;7210;51.502;10.722;2023-08-24T08:11:12;21.00;1.00
14252;DHT22;7210;51.502;10.722;2023-08-24T08:13:39;21.00;1.00
14252;DHT22;7210;51.502;10.722;2023-08-24T08:16:08;21.00;1.00
14252;DHT22;7210;51.502;10.722;2023-08-24T08:18:36;21.00;1.00
14252;DHT22;7210;51.502;10.722;2023-08-24T08:21:09;21.10;1.00
14252;DHT22;7210;51.502;10.722;2023-08-24T08:23:37;21.00;1.00
14252;DHT22;7210;51.502;10.722;2023-08-24T08:26:04;21.00;1.00
14252;DHT22;7210;51.502;10.722;2023-08-24T08:28:31;21.00;1.00
14252;DHT22;7210;51.502;10.722;2023-08-24T08:31:00;21.00;1.00
14252;DHT22;7210;51.502;10.722;2023-08-24T08:33:29;21.00;1.00
14252;DHT22;7210;51.502;10.722;2023-08-24T08:35:57;21.00;1.00
14252;DHT22;7210;51.502;10.722;2023-08-24T08:38:24;21.10;1.00
14252;DHT22;7210;51.502;10.722;2023-08-24T08:40:54;21.10;1.00
14252;DHT22;7210;51.502;10.722;2023-08-24T08:43:23;21.20;1.00
14252;DHT22;7210;51.502;10.722;2023-08-24T08:45:53;21.30;1.00
14252;DHT22;7210;51.502;10.722;2023-08-24T08:48:22;21.40;1.00
14252;DHT22;7210;51.502;10.722;2023-08-24T08:50:52;21.50;1.00
14252;DHT22;7210;51.502;10.722;2023-08-24T08:53:22;21.60;1.00
14252;DHT22;7210;51.502;10.722;2023-08-24T08:55:55;21.80;1.00
14252;DHT22;7210;51.502;10.722;2023-08-24T08:58:25;21.90;1.00
14252;DHT22;7210;51.502;10.722;2023-08-24T09:00:54;21.90;1.00
14252;DHT22;7210;51.502;10.722;2023-08-24T09:03:22;22.10;1.00
14252;DHT22;7210;51.502;10.722;2023-08-24T09:05:51;22.20;1.00
14252;DHT22;7210;51.502;10.722;2023-08-24T09:08:19;22.30;1.00
14252;DHT22;7210;51.502;10.722;2023-08-24T09:11:00;22.50;1.00
14252;DHT22;7210;51.502;10.722;2023-08-24T09:13:28;22.50;1.00
14252;DHT22;7210;51.502;10.722;2023-08-24T09:16:04;22.60;1.00
14252;DHT22;7210;51.502;10.722;2023-08-24T09:18:37;22.60;1.00
14252;DHT22;7210;51.502;10.722;2023-08-24T09:21:11;22.60;1.00
14252;DHT22;7210;51.502;10.722;2023-08-24T09:23:43;22.70;1.00
14252;DHT22;7210;51.502;10.722;2023-08-24T09:26:11;22.60;1.00
14252;DHT22;7210;51.502;10.722;2023-08-24T09:28:42;22.60;1.00
14252;DHT22;7210;51.502;10.722;2023-08-24T09:31:11;22.70;1.00
14252;DHT22;7210;51.502;10.722;2023-08-24T09:33:42;22.80;1.00
14252;DHT22;7210;51.502;10.722;2023-08-24T09:36:14;22.90;1.00
14252;DHT22;7210;51.502;10.722;2023-08-24T09:38:46;23.20;1.00
14252;DHT22;7210;51.502;10.722;2023-08-24T09:41:15;23.30;1.00
14252;DHT22;7210;51.502;10.722;2023-08-24T09:43:48;23.40;1.00
14252;DHT22;7210;51.502;10.722;2023-08-24T09:46:18;23.60;1.00
14252;DHT22;7210;51.502;10.722;2023-08-24T09:48:53;23.70;1.00
14252;DHT22;7210;51.502;10.722;2023-08-24T09:51:26;23.90;1.00
14252;DHT22;7210;51.502;10.722;2023-08-24T09:53:57;24.00;1.00
14252;DHT22;7210;51.502;10.722;2023-08-24T09:56:26;24.00;1.00
14252;DHT22;7210;51.502;10.722;2023-08-24T09:59:00;24.00;1.00
14252;DHT22;7210;51.502;10.722;2023-08-24T10:01:44;24.10;1.00
14252;DHT22;7210;51.502;10.722;2023-08-24T10:04:22;24.30;1.00
14252;DHT22;7210;51.502;10.722;2023-08-24T10:06:56;24.20;1.00
14252;DHT22;7210;51.502;10.722;2023-08-24T10:09:51;24.20;1.00
14252;DHT22;7210;51.502;10.722;2023-08-24T10:12:27;24.30;1.00
14252;DHT22;7210;51.502;10.722;2023-08-24T10:14:59;24.50;1.00
14252;DHT22;7210;51.502;10.722;2023-08-24T10:17:29;24.60;1.00
14252;DHT22;7210;51.502;10.722;2023-08-24T10:19:59;24.70;1.00
14252;DHT22;7210;51.502;10.722;2023-08-24T10:22:31;24.80;1.00
14252;DHT22;7210;51.502;10.722;2023-08-24T10:25:00;24.90;1.00
14252;DHT22;7210;51.502;10.722;2023-08-24T10:27:29;24.80;1.00
14252;DHT22;7210;51.502;10.722;2023-08-24T10:29:57;24.90;1.00
14252;DHT22;7210;51.502;10.722;2023-08-24T10:32:25;24.70;1.00
14252;DHT22;7210;51.502;10.722;2023-08-24T10:34:53;24.90;1.00
14252;DHT22;7210;51.502;10.722;2023-08-24T10:37:26;25.00;1.00
14252;DHT22;7210;51.502;10.722;2023-08-24T10:39:55;25.00;1.00
14252;DHT22;7210;51.502;10.722;2023-08-24T10:42:23;25.10;1.00
14252;DHT22;7210;51.502;10.722;2023-08-24T10:44:51;25.10;1.00
14252;DHT22;7210;51.502;10.722;2023-08-24T10:47:20;25.30;1.00
14252;DHT22;7210;51.502;10.722;2023-08-24T10:49:58;25.60;1.00
14252;DHT22;7210;51.502;10.722;2023-08-24T10:52:30;25.90;1.00
14252;DHT22;7210;51.502;10.722;2023-08-24T10:55:00;26.10;1.00
14252;DHT22;7210;51.502;10.722;2023-08-24T10:57:35;26.20;1.00
14252;DHT22;7210;51.502;10.722;2023-08-24T11:00:07;26.20;1.00
14252;DHT22;7210;51.502;10.722;2023-08-24T11:02:43;26.10;1.00
14252;DHT22;7210;51.502;10.722;2023-08-24T11:05:18;26.10;1.00
14252;DHT22;7210;51.502;10.722;2023-08-24T11:07:54;26.10;1.00
14252;DHT22;7210;51.502;10.722;2023-08-24T11:10:25;26.20;1.00
14252;DHT22;7210;51.502;10.722;2023-08-24T11:13:15;26.20;1.00
14252;DHT22;7210;51.502;10.722;2023-08-24T11:15:45;26.20;1.00
14252;DHT22;7210;51.502;10.722;2023-08-24T11:18:25;26.10;1.00
14252;DHT22;7210;51.502;10.722;2023-08-24T11:20:55;26.20;1.00
14252;DHT22;7210;51.502;10.722;2023-08-24T11:23:24;26.40;1.00
14252;DHT22;7210;51.502;10.722;2023-08-24T11:25:54;26.60;1.00
14252;DHT22;7210;51.502;10.722;2023-08-24T11:28:24;26.70;1.00
14252;DHT22;7210;51.502;10.722;2023-08-24T11:30:55;26.70;1.00
14252;DHT22;7210;51.502;10.722;2023-08-24T11:33:36;26.80;1.00
14252;DHT22;7210;51.502;10.722;2023-08-24T11:36:04;27.00;1.00
14252;DHT22;7210;51.502;10.722;2023-08-24T11:38:36;27.10;1.00
14252;DHT22;7210;51.502;10.722;2023-08-24T11:41:15;27.00;1.00
14252;DHT22;7210;51.502;10.722;2023-08-24T11:43:46;27.00;1.00
14252;DHT22;7210;51.502;10.722;2023-08-24T11:46:16;26.80;1.00
14252;DHT22;7210;51.502;10.722;2023-08-24T11:48:45;27.00;1.00
14252;DHT22;7210;51.502;10.722;2023-08-24T11:51:13;27.20;1.00
14252;DHT22;7210;51.502;10.722;2023-08-24T11:53:41;27.30;1.00
14252;DHT22;7210;51.502;10.722;2023-08-24T11:56:09;27.10;1.00
14252;DHT22;7210;51.502;10.722;2023-08-24T11:58:39;27.20;1.00
14252;DHT22;7210;51.502;10.722;2023-08-24T12:01:07;27.40;1.00
14252;DHT22;7210;51.502;10.722;2023-08-24T12:03:35;27.40;1.00
14252;DHT22;7210;51.502;10.722;2023-08-24T12:06:10;27.40;1.00
14252;DHT22;7210;51.502;10.722;2023-08-24T12:08:39;27.50;1.00
14252;DHT22;7210;51.502;10.722;2023-08-24T12:11:12;27.60;1.00
14252;DHT22;7210;51.502;10.722;2023-08-24T12:13:46;27.60;1.00
14252;DHT22;7210;51.502;10.722;2023-08-24T12:16:16;27.80;1.00
14252;DHT22;7210;51.502;10.722;2023-08-24T12:18:49;27.80;1.10
14252;DHT22;7210;51.502;10.722;2023-08-24T12:21:18;27.90;1.00
14252;DHT22;7210;51.502;10.722;2023-08-24T12:23:55;27.60;1.60
14252;DHT22;7210;51.502;10.722;2023-08-24T12:26:24;27.70;2.20
14252;DHT22;7210;51.502;10.722;2023-08-24T12:28:54;27.70;1.00
14252;DHT22;7210;51.502;10.722;2023-08-24T12:31:26;27.80;3.90
14252;DHT22;7210;51.502;10.722;2023-08-24T12:34:04;28.00;3.40
14252;DHT22;7210;51.502;10.722;2023-08-24T12:36:32;28.10;6.90
14252;DHT22;7210;51.502;10.722;2023-08-24T12:39:01;28.20;8.20
14252;DHT22;7210;51.502;10.722;2023-08-24T12:41:30;28.20;8.10
14252;DHT22;7210;51.502;10.722;2023-08-24T12:43:58;28.10;7.50
14252;DHT22;7210;51.502;10.722;2023-08-24T12:46:30;28.10;6.30
14252;DHT22;7210;51.502;10.722;2023-08-24T12:49:00;28.00;9.00
14252;DHT22;7210;51.502;10.722;2023-08-24T12:51:27;28.30;10.00
14252;DHT22;7210;51.502;10.722;2023-08-24T12:53:55;28.50;12.10
14252;DHT22;7210;51.502;10.722;2023-08-24T12:56:30;28.50;11.40
14252;DHT22;7210;51.502;10.722;2023-08-24T12:58:59;28.40;10.30
14252;DHT22;7210;51.502;10.722;2023-08-24T13:01:26;28.20;10.50
14252;DHT22;7210;51.502;10.722;2023-08-24T13:03:53;28.30;10.60
14252;DHT22;7210;51.502;10.722;2023-08-24T13:06:20;28.60;12.70
14252;DHT22;7210;51.502;10.722;2023-08-24T13:08:47;28.80;15.40
14252;DHT22;7210;51.502;10.722;2023-08-24T13:11:15;28.90;16.80
14252;DHT22;7210;51.502;10.722;2023-08-24T13:13:42;29.20;18.50
14252;DHT22;7210;51.502;10.722;2023-08-24T13:16:17;29.30;20.70
14252;DHT22;7210;51.502;10.722;2023-08-24T13:18:44;29.20;19.20
14252;DHT22;7210;51.502;10.722;2023-08-24T13:21:18;29.10;18.60
14252;DHT22;7210;51.502;10.722;2023-08-24T13:23:46;28.80;16.40
14252;DHT22;7210;51.502;10.722;2023-08-24T13:26:18;28.80;18.30
14252;DHT22;7210;51.502;10.722;2023-08-24T13:28:46;28.60;15.70
14252;DHT22;7210;51.502;10.722;2023-08-24T13:31:16;28.70;16.80
14252;DHT22;7210;51.502;10.722;2023-08-24T13:33:44;28.50;15.30
14252;DHT22;7210;51.502;10.722;2023-08-24T13:36:12;28.70;15.60
14252;DHT22;7210;51.502;10.722;2023-08-24T13:38:39;28.80;17.90
14252;DHT22;7210;51.502;10.722;2023-08-24T13:41:06;29.10;19.60
14252;DHT22;7210;51.502;10.722;2023-08-24T13:43:34;29.10;19.30
14252;DHT22;7210;51.502;10.722;2023-08-24T13:46:06;29.10;19.40
14252;DHT22;7210;51.502;10.722;2023-08-24T13:48:35;28.80;18.60
14252;DHT22;7210;51.502;10.722;2023-08-24T13:51:02;28.80;16.50
14252;DHT22;7210;51.502;10.722;2023-08-24T13:53:30;28.80;17.00
14252;DHT22;7210;51.502;10.722;2023-08-24T13:55:57;28.80;19.40
14252;DHT22;7210;51.502;10.722;2023-08-24T13:58:36;28.70;18.80
14252;DHT22;7210;51.502;10.722;2023-08-24T14:01:03;28.70;17.10
14252;DHT22;7210;51.502;10.722;2023-08-24T14:03:30;28.90;18.40
14252;DHT22;7210;51.502;10.722;2023-08-24T14:06:00;28.90;21.70
14252;DHT22;7210;51.502;10.722;2023-08-24T14:08:28;29.00;19.70
14252;DHT22;7210;51.502;10.722;2023-08-24T14:11:00;28.80;20.00
14252;DHT22;7210;51.502;10.722;2023-08-24T14:13:30;28.70;18.70
14252;DHT22;7210;51.502;10.722;2023-08-24T14:15:57;28.70;18.20
14252;DHT22;7210;51.502;10.722;2023-08-24T14:18:24;28.60;16.90
14252;DHT22;7210;51.502;10.722;2023-08-24T14:20:53;28.70;17.00
14252;DHT22;7210;51.502;10.722;2023-08-24T14:23:21;28.70;18.50
14252;DHT22;7210;51.502;10.722;2023-08-24T14:25:48;28.70;18.80
14252;DHT22;7210;51.502;10.722;2023-08-24T14:28:20;28.70;18.80
14252;DHT22;7210;51.502;10.722;2023-08-24T14:30:48;28.60;19.00
14252;DHT22;7210;51.502;10.722;2023-08-24T14:33:16;28.70;19.10
14252;DHT22;7210;51.502;10.722;2023-08-24T14:35:50;28.70;20.00
14252;DHT22;7210;51.502;10.722;2023-08-24T14:38:17;28.80;20.70
14252;DHT22;7210;51.502;10.722;2023-08-24T14:40:46;28.80;21.50
14252;DHT22;7210;51.502;10.722;2023-08-24T14:43:18;28.70;24.30
14252;DHT22;7210;51.502;10.722;2023-08-24T14:45:48;28.80;22.00
14252;DHT22;7210;51.502;10.722;2023-08-24T14:48:15;28.70;23.50
14252;DHT22;7210;51.502;10.722;2023-08-24T14:50:42;28.80;23.30
14252;DHT22;7210;51.502;10.722;2023-08-24T14:53:09;28.90;27.70
14252;DHT22;7210;51.502;10.722;2023-08-24T14:55:37;28.90;43.40
14252;DHT22;7210;51.502;10.722;2023-08-24T14:58:06;29.10;28.20
14252;DHT22;7210;51.502;10.722;2023-08-24T15:00:34;29.20;29.60
14252;DHT22;7210;51.502;10.722;2023-08-24T15:03:02;29.30;31.30
14252;DHT22;7210;51.502;10.722;2023-08-24T15:05:30;29.50;33.50
14252;DHT22;7210;51.502;10.722;2023-08-24T15:07:57;29.50;34.30
14252;DHT22;7210;51.502;10.722;2023-08-24T15:10:24;29.50;33.60
14252;DHT22;7210;51.502;10.722;2023-08-24T15:12:52;29.40;32.40
14252;DHT22;7210;51.502;10.722;2023-08-24T15:15:20;29.50;32.50
14252;DHT22;7210;51.502;10.722;2023-08-24T15:17:48;29.20;28.40
14252;DHT22;7210;51.502;10.722;2023-08-24T15:20:15;29.10;29.50
14252;DHT22;7210;51.502;10.722;2023-08-24T15:22:42;29.10;29.90
14252;DHT22;7210;51.502;10.722;2023-08-24T15:25:09;29.20;31.10
14252;DHT22;7210;51.502;10.722;2023-08-24T15:27:37;29.30;32.20
14252;DHT22;7210;51.502;10.722;2023-08-24T15:30:05;29.10;32.50
14252;DHT22;7210;51.502;10.722;2023-08-24T15:32:35;29.20;31.80
14252;DHT22;7210;51.502;10.722;2023-08-24T15:35:02;29.30;33.70
14252;DHT22;7210;51.502;10.722;2023-08-24T15:37:36;29.20;32.10
14252;DHT22;7210;51.502;10.722;2023-08-24T15:40:06;29.20;33.00
14252;DHT22;7210;51.502;10.722;2023-08-24T15:42:34;29.20;33.10
14252;DHT22;7210;51.502;10.722;2023-08-24T15:45:01;29.10;32.90
14252;DHT22;7210;51.502;10.722;2023-08-24T15:47:37;28.90;30.30
14252;DHT22;7210;51.502;10.722;2023-08-24T15:50:05;28.90;29.70
14252;DHT22;7210;51.502;10.722;2023-08-24T15:52:36;28.90;27.60
14252;DHT22;7210;51.502;10.722;2023-08-24T15:55:04;28.90;29.30
14252;DHT22;7210;51.502;10.722;2023-08-24T15:57:31;28.70;27.90
14252;DHT22;7210;51.502;10.722;2023-08-24T15:59:58;28.60;26.20
14252;DHT22;7210;51.502;10.722;2023-08-24T16:02:26;28.40;26.80
14252;DHT22;7210;51.502;10.722;2023-08-24T16:04:55;28.40;25.70
14252;DHT22;7210;51.502;10.722;2023-08-24T16:07:22;28.30;24.10
14252;DHT22;7210;51.502;10.722;2023-08-24T16:09:49;28.30;24.10
14252;DHT22;7210;51.502;10.722;2023-08-24T16:12:16;28.30;23.90
14252;DHT22;7210;51.502;10.722;2023-08-24T16:14:43;28.00;21.40
14252;DHT22;7210;51.502;10.722;2023-08-24T16:17:11;27.80;18.40
14252;DHT22;7210;51.502;10.722;2023-08-24T16:19:38;27.60;17.40